createdAt,value
2023-01-28T00:01:28.535Z,-1.30
2023-01-28T00:04:01.128Z,-1.30
2023-01-28T00:06:31.197Z,-1.30
2023-01-28T00:09:01.197Z,-1.30
2023-01-28T00:11:31.118Z,-1.30
2023-01-28T00:14:01.043Z,-1.40
2023-01-28T00:16:31.923Z,-1.30
2023-01-28T00:19:04.467Z,-1.30
2023-01-28T00:21:34.423Z,-1.30
2023-01-28T00:24:04.452Z,-1.30
2023-01-28T00:26:34.447Z,-1.20
2023-01-28T00:29:04.552Z,-1.30
2023-01-28T00:31:35.504Z,-1.30
2023-01-28T00:34:08.121Z,-1.30
2023-01-28T00:36:40.202Z,-1.30
2023-01-28T00:39:10.160Z,-1.30
2023-01-28T00:41:40.311Z,-1.20
2023-01-28T00:44:11.955Z,-1.20
2023-01-28T00:46:42.196Z,-1.20
2023-01-28T00:49:15.054Z,-1.20
2023-01-28T00:51:45.112Z,-1.30
2023-01-28T00:54:15.721Z,-1.30
2023-01-28T00:56:45.662Z,-1.30
2023-01-28T00:59:15.616Z,-1.20
2023-01-28T01:01:45.716Z,-1.20
2023-01-28T01:04:26.543Z,-1.20
2023-01-28T01:06:56.602Z,-1.10
2023-01-28T01:09:26.803Z,-1.00
2023-01-28T01:11:56.926Z,-0.90
2023-01-28T01:14:26.872Z,-0.90
2023-01-28T01:16:56.833Z,-0.90
2023-01-28T01:19:30.252Z,-0.90
2023-01-28T01:22:00.173Z,-0.90
2023-01-28T01:24:34.228Z,-1.00
2023-01-28T01:27:06.164Z,-0.90
2023-01-28T01:29:36.882Z,-0.90
2023-01-28T01:32:07.573Z,-1.00
2023-01-28T01:34:40.176Z,-1.00
2023-01-28T01:37:10.653Z,-1.00
2023-01-28T01:39:40.828Z,-1.00
2023-01-28T01:42:13.588Z,-0.90
2023-01-28T01:44:59.895Z,-1.00
2023-01-28T01:47:39.082Z,-1.00
2023-01-28T01:50:17.765Z,-0.90
2023-01-28T01:52:49.329Z,-1.00
2023-01-28T01:55:22.461Z,-1.00
2023-01-28T01:57:53.930Z,-1.10
2023-01-28T02:00:24.190Z,-1.10
2023-01-28T02:02:56.837Z,-1.00
2023-01-28T02:05:29.708Z,-1.00
2023-01-28T02:08:21.197Z,-1.10
2023-01-28T02:10:53.326Z,-1.00
2023-01-28T02:13:25.911Z,-1.10
2023-01-28T02:15:56.587Z,-1.00
2023-01-28T02:18:26.578Z,-1.00
2023-01-28T02:21:20.897Z,-1.00
2023-01-28T02:24:00.287Z,-1.10
2023-01-28T02:26:46.207Z,-1.10
2023-01-28T02:29:21.180Z,-1.10
2023-01-28T02:31:56.315Z,-1.10
2023-01-28T02:34:33.260Z,-1.10
2023-01-28T02:37:08.038Z,-1.10
2023-01-28T02:39:42.468Z,-1.10
2023-01-28T02:42:16.495Z,-1.00
2023-01-28T02:44:49.080Z,-1.10
2023-01-28T02:47:31.659Z,-1.10
2023-01-28T02:50:03.964Z,-1.20
2023-01-28T02:52:56.141Z,-1.20
2023-01-28T02:55:34.154Z,-1.20
2023-01-28T02:58:09.267Z,-1.20
2023-01-28T03:00:49.343Z,-1.10
2023-01-28T03:03:23.301Z,-1.00
2023-01-28T03:06:07.121Z,-1.00
2023-01-28T03:08:58.310Z,-1.00
2023-01-28T03:11:41.044Z,-1.10
2023-01-28T03:14:24.774Z,-1.20
2023-01-28T03:17:11.373Z,-1.20
2023-01-28T03:19:55.154Z,-1.10
2023-01-28T03:22:38.150Z,-1.20
2023-01-28T03:25:21.260Z,-1.10
2023-01-28T03:28:08.811Z,-1.10
2023-01-28T03:30:55.192Z,-1.10
2023-01-28T03:33:50.108Z,-1.10
2023-01-28T03:36:33.045Z,-1.20
2023-01-28T03:39:03.036Z,-1.20
2023-01-28T03:41:33.007Z,-1.20
2023-01-28T03:44:15.354Z,-1.10
2023-01-28T03:46:49.004Z,-1.20
2023-01-28T03:49:21.831Z,-1.00
2023-01-28T03:51:51.943Z,-1.20
2023-01-28T03:54:21.930Z,-1.10
2023-01-28T03:56:52.009Z,-1.10
2023-01-28T03:59:21.991Z,-1.20
2023-01-28T04:01:52.325Z,-1.10
2023-01-28T04:04:25.825Z,-1.20
2023-01-28T04:06:58.651Z,-1.30
2023-01-28T04:09:28.764Z,-1.20
2023-01-28T04:12:19.205Z,-1.10
2023-01-28T04:14:53.231Z,-1.20
2023-01-28T04:17:31.162Z,-1.20
2023-01-28T04:20:03.906Z,-1.30
2023-01-28T04:22:33.902Z,-1.30
2023-01-28T04:25:03.877Z,-1.30
2023-01-28T04:27:34.036Z,-1.20
2023-01-28T04:30:13.808Z,-1.20
2023-01-28T04:32:50.601Z,-1.30
2023-01-28T04:35:32.787Z,-1.30
2023-01-28T04:38:09.016Z,-1.20
2023-01-28T04:40:59.251Z,-1.20
2023-01-28T04:43:32.412Z,-1.20
2023-01-28T04:46:32.681Z,-1.20
2023-01-28T04:49:19.279Z,-1.20
2023-01-28T04:52:13.826Z,-1.10
2023-01-28T04:55:07.807Z,-1.00
2023-01-28T04:57:37.913Z,-1.10
2023-01-28T05:00:11.852Z,-1.10
2023-01-28T05:02:41.914Z,-1.00
2023-01-28T05:05:12.647Z,-1.10
2023-01-28T05:08:01.904Z,-1.10
2023-01-28T05:10:32.463Z,-1.10
2023-01-28T05:13:02.427Z,-1.10
2023-01-28T05:15:32.586Z,-1.00
2023-01-28T05:18:02.872Z,-1.10
2023-01-28T05:20:38.433Z,-1.10
2023-01-28T05:23:11.176Z,-1.10
2023-01-28T05:25:56.973Z,-1.10
2023-01-28T05:28:27.075Z,-1.10
2023-01-28T05:30:57.179Z,-1.10
2023-01-28T05:33:27.241Z,-1.10
2023-01-28T05:35:57.295Z,-1.00
2023-01-28T05:38:29.873Z,-1.00
2023-01-28T05:40:59.838Z,-1.10
2023-01-28T05:43:29.854Z,-1.20
2023-01-28T05:46:26.183Z,-1.10
2023-01-28T05:49:18.922Z,-1.10
2023-01-28T05:52:12.190Z,-1.00
2023-01-28T05:54:45.257Z,-1.10
2023-01-28T05:57:15.408Z,-1.10
2023-01-28T05:59:45.423Z,-1.10
2023-01-28T06:02:15.543Z,-1.10
2023-01-28T06:04:46.011Z,-1.10
2023-01-28T06:07:19.708Z,-1.10
2023-01-28T06:09:53.427Z,-1.20
2023-01-28T06:12:24.780Z,-1.10
2023-01-28T06:15:17.574Z,-1.10
2023-01-28T06:18:07.883Z,-1.10
2023-01-28T06:20:38.236Z,-1.00
2023-01-28T06:23:09.649Z,-1.10
2023-01-28T06:25:42.343Z,-1.00
2023-01-28T06:28:15.018Z,-1.00
2023-01-28T06:30:44.992Z,-1.10
2023-01-28T06:33:15.097Z,-1.10
2023-01-28T06:35:45.563Z,-1.00
2023-01-28T06:38:16.130Z,-1.10
2023-01-28T06:40:49.762Z,-1.10
2023-01-28T06:43:19.711Z,-1.10
2023-01-28T06:45:49.781Z,-1.20
2023-01-28T06:48:19.838Z,-1.10
2023-01-28T06:50:50.984Z,-1.10
2023-01-28T06:53:22.001Z,-1.10
2023-01-28T06:55:54.675Z,-1.10
2023-01-28T06:58:24.729Z,-1.10
2023-01-28T07:00:56.251Z,-1.10
2023-01-28T07:03:26.220Z,-1.10
2023-01-28T07:05:56.288Z,-1.10
2023-01-28T07:08:26.217Z,-1.00
2023-01-28T07:10:58.798Z,-1.20
2023-01-28T07:13:28.764Z,-1.10
2023-01-28T07:15:58.693Z,-1.20
2023-01-28T07:18:28.755Z,-1.20
2023-01-28T07:20:58.999Z,-1.20
2023-01-28T07:23:29.237Z,-1.10
2023-01-28T07:26:04.281Z,-1.10
2023-01-28T07:28:34.593Z,-1.10
2023-01-28T07:31:04.730Z,-1.20
2023-01-28T07:33:34.956Z,-1.10
2023-01-28T07:36:04.898Z,-1.10
2023-01-28T07:38:34.860Z,-1.10
2023-01-28T07:41:08.127Z,-1.10
2023-01-28T07:43:38.185Z,-1.10
2023-01-28T07:46:08.304Z,-1.20
2023-01-28T07:48:38.608Z,-1.20
2023-01-28T07:51:08.743Z,-1.20
2023-01-28T07:53:39.085Z,-1.20
2023-01-28T07:56:11.790Z,-1.20
2023-01-28T07:58:41.822Z,-1.20
2023-01-28T08:01:11.831Z,-1.30
2023-01-28T08:03:41.783Z,-1.30
2023-01-28T08:06:11.773Z,-1.30
2023-01-28T08:08:41.804Z,-1.30
2023-01-28T08:11:14.677Z,-1.40
2023-01-28T08:13:44.631Z,-1.40
2023-01-28T08:16:14.752Z,-1.40
2023-01-28T08:18:44.730Z,-1.40
2023-01-28T08:21:14.634Z,-1.40
2023-01-28T08:23:44.602Z,-1.40
2023-01-28T08:26:17.155Z,-1.50
2023-01-28T08:28:47.134Z,-1.40
2023-01-28T08:31:17.165Z,-1.40
2023-01-28T08:33:47.175Z,-1.50
2023-01-28T08:36:17.167Z,-1.60
2023-01-28T08:38:47.567Z,-1.50
2023-01-28T08:41:20.156Z,-1.60
2023-01-28T08:43:50.625Z,-1.60
2023-01-28T08:46:20.614Z,-1.60
2023-01-28T08:48:52.794Z,-1.60
2023-01-28T08:51:22.773Z,-1.70
2023-01-28T08:53:52.745Z,-1.60
2023-01-28T08:56:25.339Z,-1.60
2023-01-28T08:58:55.358Z,-1.60
2023-01-28T09:01:26.300Z,-1.60
2023-01-28T09:03:56.261Z,-1.60
2023-01-28T09:06:28.688Z,-1.60
2023-01-28T09:08:59.972Z,-1.60
2023-01-28T09:11:33.016Z,-1.50
2023-01-28T09:14:03.059Z,-1.60
2023-01-28T09:16:33.006Z,-1.60
2023-01-28T09:19:02.952Z,-1.50
2023-01-28T09:21:33.051Z,-1.50
2023-01-28T09:24:03.053Z,-1.50
2023-01-28T09:26:36.192Z,-1.40
2023-01-28T09:29:06.208Z,-1.50
2023-01-28T09:31:36.687Z,-1.50
2023-01-28T09:34:06.650Z,-1.40
2023-01-28T09:36:36.718Z,-1.40
2023-01-28T09:39:08.438Z,-1.40
2023-01-28T09:41:50.267Z,-1.40
2023-01-28T09:44:41.834Z,-1.40
2023-01-28T09:47:17.864Z,-1.40
2023-01-28T09:49:51.078Z,-1.40
2023-01-28T09:52:22.662Z,-1.40
2023-01-28T09:54:54.166Z,-1.40
2023-01-28T09:57:28.715Z,-1.40
2023-01-28T09:59:58.705Z,-1.50
2023-01-28T10:02:40.917Z,-1.50
2023-01-28T10:05:19.774Z,-1.40
2023-01-28T10:07:55.416Z,-1.40
2023-01-28T10:10:29.975Z,-1.40
2023-01-28T10:13:21.753Z,-1.50
2023-01-28T10:16:04.815Z,-1.50
2023-01-28T10:18:38.822Z,-1.50
2023-01-28T10:21:13.317Z,-1.40
2023-01-28T10:23:49.694Z,-1.50
2023-01-28T10:26:26.343Z,-1.50
2023-01-28T10:29:01.480Z,-1.50
2023-01-28T12:26:01.758Z,-1.80
2023-01-28T12:28:44.717Z,-1.80
2023-01-28T12:31:33.613Z,-1.80
2023-01-28T12:34:16.086Z,-1.80
2023-01-28T12:36:51.705Z,-1.80
2023-01-28T12:39:31.656Z,-1.80
2023-01-28T12:42:08.624Z,-1.80
2023-01-28T12:44:42.164Z,-1.80
2023-01-28T12:47:13.717Z,-1.90
2023-01-28T12:49:48.057Z,-1.80
2023-01-28T12:52:22.793Z,-1.90
2023-01-28T12:54:59.410Z,-1.90
2023-01-28T12:57:33.682Z,-1.90
2023-01-28T13:00:10.889Z,-1.90
2023-01-28T13:02:43.782Z,-1.90
2023-01-28T13:05:16.741Z,-2.00
2023-01-28T13:07:51.176Z,-2.00
2023-01-28T13:10:25.333Z,-2.00
2023-01-28T13:12:59.230Z,-2.00
2023-01-28T13:15:29.472Z,-2.10
2023-01-28T13:18:01.080Z,-2.00
2023-01-28T13:20:34.834Z,-2.00
2023-01-28T13:23:06.940Z,-2.00
2023-01-28T13:25:37.670Z,-2.10
2023-01-28T13:28:29.173Z,-2.10
2023-01-28T13:31:05.655Z,-2.10
2023-01-28T13:33:37.362Z,-2.10
2023-01-28T13:36:25.953Z,-2.10
2023-01-28T13:39:04.264Z,-2.00
2023-01-28T13:41:41.801Z,-2.00
2023-01-28T13:44:30.814Z,-2.00
2023-01-28T13:47:03.229Z,-2.00
2023-01-28T13:49:36.747Z,-2.00
2023-01-28T13:52:11.747Z,-2.10
2023-01-28T13:54:44.026Z,-2.10
2023-01-28T13:57:46.374Z,-2.10
2023-01-28T14:00:27.296Z,-2.20
2023-01-28T14:03:10.480Z,-2.20
2023-01-28T14:06:06.863Z,-2.20
2023-01-28T14:08:50.682Z,-2.20
2023-01-28T14:11:36.149Z,-2.20
2023-01-28T14:14:34.387Z,-2.20
2023-01-28T14:17:10.308Z,-2.30
2023-01-28T14:19:41.024Z,-2.30
2023-01-28T14:22:11.378Z,-2.40
2023-01-28T14:24:41.611Z,-2.40
2023-01-28T14:27:17.638Z,-2.40
2023-01-28T14:29:58.105Z,-2.30
2023-01-28T14:32:32.762Z,-2.40
2023-01-28T14:35:04.940Z,-2.30
2023-01-28T14:37:35.616Z,-2.40
2023-01-28T14:40:07.346Z,-2.40
2023-01-28T14:42:40.740Z,-2.50
2023-01-28T14:45:19.276Z,-2.50
2023-01-28T14:48:09.415Z,-2.50
2023-01-28T14:50:53.349Z,-2.50
2023-01-28T14:53:32.566Z,-2.50
2023-01-28T14:56:08.665Z,-2.50
2023-01-28T14:58:43.898Z,-2.50
2023-01-28T15:01:23.857Z,-2.60
2023-01-28T15:03:56.917Z,-2.60
2023-01-28T15:06:28.056Z,-2.50
2023-01-28T15:09:09.251Z,-2.50
2023-01-28T15:11:40.620Z,-2.50
2023-01-28T15:14:16.670Z,-2.50
2023-01-28T15:16:50.727Z,-2.50
2023-01-28T15:19:28.877Z,-2.50
2023-01-28T15:21:59.990Z,-2.50
2023-01-28T15:24:30.239Z,-2.50
2023-01-28T15:27:00.266Z,-2.50
2023-01-28T15:29:35.151Z,-2.40
2023-01-28T15:32:05.943Z,-2.50
2023-01-28T15:34:38.557Z,-2.50
2023-01-28T15:37:08.501Z,-2.60
2023-01-28T15:39:38.889Z,-2.70
2023-01-28T15:42:10.088Z,-2.60
2023-01-28T15:44:42.166Z,-2.60
2023-01-28T15:47:18.796Z,-2.60
2023-01-28T15:49:53.664Z,-2.60
2023-01-28T15:52:24.228Z,-2.70
2023-01-28T15:54:55.392Z,-2.70
2023-01-28T15:57:31.048Z,-2.80
2023-01-28T16:00:15.095Z,-2.80
2023-01-28T16:02:49.900Z,-2.90
2023-01-28T16:05:31.427Z,-2.80
2023-01-28T16:08:01.730Z,-2.80
2023-01-28T16:10:32.782Z,-2.90
2023-01-28T16:13:07.558Z,-3.00
2023-01-28T16:15:38.540Z,-3.00
2023-01-28T16:18:09.605Z,-3.00
2023-01-28T16:20:42.166Z,-2.90
2023-01-28T16:23:24.621Z,-3.00
2023-01-28T16:26:02.845Z,-2.90
2023-01-28T16:28:33.117Z,-2.90
2023-01-28T16:31:03.218Z,-2.90
2023-01-28T16:33:33.214Z,-2.90
2023-01-28T16:36:08.735Z,-3.00
2023-01-28T16:38:38.910Z,-2.90
2023-01-28T16:41:09.233Z,-2.90
2023-01-28T16:43:39.189Z,-2.90
2023-01-28T16:46:09.770Z,-2.90
2023-01-28T16:48:39.885Z,-2.90
2023-01-28T16:51:18.777Z,-3.10
2023-01-28T16:53:49.956Z,-3.00
2023-01-28T16:56:44.145Z,-3.10
2023-01-28T16:59:12.830Z,-3.00
2023-01-28T17:01:42.793Z,-3.10
2023-01-28T17:04:13.435Z,-3.10
2023-01-28T17:06:46.958Z,-3.10
2023-01-28T17:09:17.701Z,-3.10
2023-01-28T17:11:47.902Z,-3.10
2023-01-28T17:14:17.902Z,-3.10
2023-01-28T17:16:47.881Z,-3.20
2023-01-28T17:19:19.795Z,-3.30
2023-01-28T17:21:52.346Z,-3.40
2023-01-28T17:24:22.436Z,-3.30
2023-01-28T17:26:55.136Z,-3.40
2023-01-28T17:29:25.071Z,-3.50
2023-01-28T17:31:55.069Z,-3.50
2023-01-28T17:34:25.027Z,-3.50
2023-01-28T17:36:57.657Z,-3.60
2023-01-28T17:39:27.583Z,-3.60
2023-01-28T17:41:57.578Z,-3.60
2023-01-28T17:44:27.550Z,-3.60
2023-01-28T17:46:57.634Z,-3.60
2023-01-28T17:49:27.777Z,-3.60
2023-01-28T17:52:00.487Z,-3.60
2023-01-28T17:54:30.792Z,-3.60
2023-01-28T17:57:00.753Z,-3.60
2023-01-28T17:59:30.965Z,-3.70
2023-01-28T18:02:01.025Z,-3.70
2023-01-28T18:04:30.969Z,-3.70
2023-01-28T18:07:10.721Z,-3.70
2023-01-28T18:09:41.248Z,-3.60
2023-01-28T18:12:13.121Z,-3.70
2023-01-28T18:14:43.529Z,-3.60
2023-01-28T18:17:14.023Z,-3.70
2023-01-28T18:19:44.005Z,-3.70
2023-01-28T18:22:16.795Z,-3.80
2023-01-28T18:24:46.867Z,-3.70
2023-01-28T18:27:17.015Z,-3.70
2023-01-28T18:29:47.821Z,-3.70
2023-01-28T18:32:17.777Z,-3.70
2023-01-28T18:34:47.756Z,-3.70
2023-01-28T18:37:20.504Z,-3.70
2023-01-28T18:39:50.464Z,-3.80
2023-01-28T18:42:20.365Z,-3.80
2023-01-28T18:44:50.855Z,-3.80
2023-01-28T18:47:20.845Z,-3.70
2023-01-28T18:49:50.773Z,-3.80
2023-01-28T18:52:23.503Z,-3.90
2023-01-28T18:54:53.943Z,-3.90
2023-01-28T18:57:24.125Z,-3.90
2023-01-28T18:59:54.097Z,-3.90
2023-01-28T19:02:24.067Z,-4.00
2023-01-28T19:04:54.077Z,-4.00
2023-01-28T19:07:26.806Z,-4.00
2023-01-28T19:09:56.866Z,-4.00
2023-01-28T19:12:26.953Z,-4.00
2023-01-28T19:14:57.364Z,-4.10
2023-01-28T19:17:27.326Z,-4.10
2023-01-28T19:19:57.294Z,-4.00
2023-01-28T19:22:30.077Z,-4.10
2023-01-28T19:25:00.055Z,-4.10
2023-01-28T19:27:30.170Z,-4.10
2023-01-28T19:30:00.327Z,-4.10
2023-01-28T19:32:30.805Z,-4.10
2023-01-28T19:35:00.895Z,-4.20
2023-01-28T19:37:33.725Z,-4.30
2023-01-28T19:40:03.678Z,-4.30
2023-01-28T19:42:33.597Z,-4.30
2023-01-28T19:45:04.430Z,-4.30
2023-01-28T19:47:34.415Z,-4.30
2023-01-28T19:50:04.516Z,-4.20
2023-01-28T19:52:37.781Z,-4.20
2023-01-28T19:55:08.886Z,-4.30
2023-01-28T19:57:38.946Z,-4.30
2023-01-28T20:00:10.840Z,-4.30
2023-01-28T20:02:40.953Z,-4.40
2023-01-28T20:05:12.330Z,-4.20
2023-01-28T20:07:45.147Z,-4.30
2023-01-28T20:10:15.160Z,-4.30
2023-01-28T20:12:45.161Z,-4.30
2023-01-28T20:15:15.387Z,-4.40
2023-01-28T20:17:45.594Z,-4.30
2023-01-28T20:20:16.017Z,-4.30
2023-01-28T20:22:48.530Z,-4.30
2023-01-28T20:25:19.064Z,-4.40
2023-01-28T20:27:50.462Z,-4.40
2023-01-28T20:30:21.176Z,-4.30
2023-01-28T20:32:51.207Z,-4.30
2023-01-28T20:35:21.163Z,-4.30
2023-01-28T20:37:53.939Z,-4.30
2023-01-28T20:40:24.023Z,-4.30
2023-01-28T20:42:54.027Z,-4.40
2023-01-28T20:45:24.131Z,-4.40
2023-01-28T20:47:54.243Z,-4.40
2023-01-28T20:50:24.548Z,-4.30
2023-01-28T20:52:57.464Z,-4.30
2023-01-28T20:55:28.607Z,-4.30
2023-01-28T20:57:58.617Z,-4.30
2023-01-28T21:00:28.818Z,-4.30
2023-01-28T21:02:58.885Z,-4.40
2023-01-28T21:05:37.408Z,-4.40
2023-01-28T21:08:10.370Z,-4.40
2023-01-28T21:10:40.994Z,-4.30
2023-01-28T21:13:11.389Z,-4.30
2023-01-28T21:15:54.004Z,-4.30
2023-01-28T21:21:23.105Z,-4.30
2023-01-28T21:23:58.103Z,-4.30
2023-01-28T21:26:29.049Z,-4.20
2023-01-28T21:28:59.199Z,-4.30
2023-01-28T21:31:29.848Z,-4.20
2023-01-28T21:34:01.832Z,-4.30
2023-01-28T21:36:34.389Z,-4.30
2023-01-28T21:39:08.287Z,-4.20
2023-01-28T21:41:38.380Z,-4.30
2023-01-28T21:44:08.530Z,-4.30
2023-01-28T21:46:38.528Z,-4.30
2023-01-28T21:49:08.516Z,-4.30
2023-01-28T21:51:39.818Z,-4.20
2023-01-28T21:54:15.071Z,-4.20
2023-01-28T21:56:45.775Z,-4.10
2023-01-28T21:59:32.678Z,-4.20
2023-01-28T22:02:03.721Z,-4.20
2023-01-28T22:04:35.825Z,-4.20
2023-01-28T22:07:06.830Z,-4.30
2023-01-28T22:09:39.456Z,-4.30
2023-01-28T22:12:10.741Z,-4.20
2023-01-28T22:14:41.728Z,-4.30
2023-01-28T22:17:12.434Z,-4.30
2023-01-28T22:19:47.911Z,-4.20
2023-01-28T22:22:18.033Z,-4.20
2023-01-28T22:24:50.610Z,-4.20
2023-01-28T22:27:20.609Z,-4.20
2023-01-28T22:29:50.581Z,-4.20
2023-01-28T22:32:20.513Z,-4.30
2023-01-28T22:34:50.497Z,-4.20
2023-01-28T22:37:20.424Z,-4.20
2023-01-28T22:39:55.246Z,-4.20
2023-01-28T22:42:26.737Z,-4.20
2023-01-28T22:44:56.663Z,-4.20
2023-01-28T22:47:26.579Z,-4.20
2023-01-28T22:49:56.528Z,-4.10
2023-01-28T22:52:26.504Z,-4.10
2023-01-28T22:54:59.066Z,-4.10
2023-01-28T22:57:28.996Z,-4.10
2023-01-28T23:00:00.649Z,-4.10
2023-01-28T23:02:30.890Z,-4.20
2023-01-28T23:05:00.829Z,-4.10
2023-01-28T23:07:30.781Z,-4.20
2023-01-28T23:10:03.468Z,-4.20
2023-01-28T23:12:33.531Z,-4.20
2023-01-28T23:15:15.862Z,-4.20
2023-01-28T23:17:58.177Z,-4.20
2023-01-28T23:20:40.491Z,-4.10
2023-01-28T23:23:25.905Z,-4.20
2023-01-28T23:25:58.435Z,-4.20
2023-01-28T23:28:28.642Z,-4.30
2023-01-28T23:30:58.821Z,-4.30
2023-01-28T23:33:28.809Z,-4.20
2023-01-28T23:35:59.340Z,-4.20
2023-01-28T23:38:29.285Z,-4.20
2023-01-28T23:41:02.396Z,-4.30
2023-01-28T23:43:32.476Z,-4.20
2023-01-28T23:46:02.447Z,-4.30
2023-01-28T23:48:32.433Z,-4.30
2023-01-28T23:51:02.425Z,-4.20
2023-01-28T23:53:32.371Z,-4.20
2023-01-28T23:56:08.585Z,-4.20
2023-01-28T23:58:43.632Z,-4.30
